Time;durP1;ratioP1;P1;durP2;ratioP2;P2;SDS_P1;SDS_P2;PMS_P1;PMS_P2;Temp;Humidity;BMP_temperature;BMP_pressure;BME280_temperature;BME280_humidity;BME280_pressure;Samples;Min_cycle;Max_cycle;Signal;HPM_P1;HPM_P2
2023/05/23 00:01:36;;;;;;;39.78;16.25;;;14.10;99.90;;;;;;5038335;28;20045;-58
2023/05/23 00:04:05;;;;;;;37.35;16.23;;;14.10;99.90;;;;;;5031119;28;20124;-59
2023/05/23 00:06:33;;;;;;;33.13;16.63;;;14.10;99.90;;;;;;5041088;28;20128;-58
2023/05/23 00:08:59;;;;;;;39.35;18.98;;;14.10;99.90;;;;;;5036330;28;20053;-59
2023/05/23 00:11:28;;;;;;;39.80;18.52;;;14.10;99.90;;;;;;5039339;28;20132;-59
2023/05/23 00:13:56;;;;;;;31.05;16.63;;;14.10;99.90;;;;;;5024327;28;20469;-58
2023/05/23 00:16:22;;;;;;;38.15;16.25;;;14.10;99.90;;;;;;5032543;28;20053;-59
2023/05/23 00:18:49;;;;;;;32.60;15.77;;;14.10;99.90;;;;;;5034071;28;20052;-58
2023/05/23 00:21:15;;;;;;;33.92;15.32;;;14.10;99.90;;;;;;5039915;28;20044;-58
2023/05/23 00:23:41;;;;;;;31.45;15.70;;;14.10;99.90;;;;;;5032125;28;20033;-58
2023/05/23 00:26:08;;;;;;;30.48;16.00;;;14.10;99.90;;;;;;5032522;28;20040;-59
2023/05/23 00:28:34;;;;;;;27.48;15.23;;;14.10;99.90;;;;;;5038112;28;20063;-58
2023/05/23 00:31:00;;;;;;;30.80;17.17;;;14.00;99.90;;;;;;5037373;28;20041;-59
2023/05/23 00:33:25;;;;;;;32.63;17.10;;;14.00;99.90;;;;;;5018722;28;20060;-58
2023/05/23 00:35:51;;;;;;;29.50;16.73;;;14.00;99.90;;;;;;5031251;28;20045;-57
2023/05/23 00:38:18;;;;;;;25.95;16.60;;;13.90;99.90;;;;;;5033950;28;20041;-58
2023/05/23 00:40:43;;;;;;;28.48;17.23;;;13.90;99.90;;;;;;5032405;28;20112;-57
2023/05/23 00:43:09;;;;;;;30.50;15.77;;;13.90;99.90;;;;;;5032619;28;20509;-58
2023/05/23 00:45:35;;;;;;;26.02;14.85;;;13.90;99.90;;;;;;5035777;28;20045;-57
2023/05/23 00:48:02;;;;;;;26.75;13.63;;;13.90;99.90;;;;;;5033732;28;20072;-57
2023/05/23 00:50:29;;;;;;;26.98;13.82;;;13.90;99.90;;;;;;5036429;28;20489;-58
2023/05/23 00:52:56;;;;;;;22.70;13.52;;;13.80;99.90;;;;;;5030666;28;20461;-57
2023/05/23 00:55:25;;;;;;;25.45;12.95;;;13.80;99.90;;;;;;5034937;28;20519;-57
2023/05/23 00:57:55;;;;;;;23.52;12.23;;;13.80;99.90;;;;;;5037389;28;20044;-58
2023/05/23 01:00:23;;;;;;;23.88;11.52;;;13.80;99.90;;;;;;5038704;28;20568;-57
2023/05/23 01:02:50;;;;;;;20.63;11.60;;;13.70;99.90;;;;;;5029004;28;20033;-58
2023/05/23 01:05:17;;;;;;;20.88;11.00;;;13.70;99.90;;;;;;5034046;28;20052;-58
2023/05/23 01:07:46;;;;;;;21.80;10.57;;;13.70;99.90;;;;;;5028892;28;20110;-58
2023/05/23 01:10:13;;;;;;;20.20;9.82;;;13.70;99.90;;;;;;5037409;28;20508;-58
2023/05/23 01:12:51;;;;;;;16.88;9.50;;;13.70;99.90;;;;;;5032601;28;20077;-59
2023/05/23 01:15:20;;;;;;;21.15;9.52;;;13.70;99.90;;;;;;5019397;28;20051;-58
2023/05/23 01:17:54;;;;;;;20.75;9.20;;;13.70;99.90;;;;;;5031167;28;20131;-58
2023/05/23 01:20:29;;;;;;;25.60;9.82;;;13.60;99.90;;;;;;5031711;28;20041;-57
2023/05/23 01:23:00;;;;;;;18.52;9.52;;;13.60;99.90;;;;;;5034966;28;20028;-58
2023/05/23 01:25:29;;;;;;;22.30;9.82;;;13.50;99.90;;;;;;5036512;28;20045;-57
2023/05/23 01:27:57;;;;;;;27.02;9.98;;;13.50;99.90;;;;;;5040658;28;20045;-58
2023/05/23 01:30:25;;;;;;;28.08;10.50;;;13.40;99.90;;;;;;5036685;28;20053;-58
2023/05/23 01:32:54;;;;;;;22.17;10.25;;;13.40;99.90;;;;;;5037089;28;20167;-58
2023/05/23 01:35:26;;;;;;;27.80;11.15;;;13.40;99.90;;;;;;5032811;28;20037;-58
2023/05/23 01:37:53;;;;;;;32.78;11.80;;;13.40;99.90;;;;;;5034064;28;20045;-58
2023/05/23 01:40:20;;;;;;;29.55;10.60;;;13.30;99.90;;;;;;5034788;28;20037;-58
2023/05/23 01:42:46;;;;;;;33.83;11.73;;;13.30;99.90;;;;;;5039769;28;20115;-58
2023/05/23 01:45:13;;;;;;;31.17;12.35;;;13.20;99.90;;;;;;5037479;28;20068;-58
2023/05/23 01:47:40;;;;;;;35.42;11.77;;;13.20;99.90;;;;;;5039918;28;20029;-58
2023/05/23 01:50:07;;;;;;;36.72;11.43;;;13.20;99.90;;;;;;5036410;28;20040;-57
2023/05/23 01:52:34;;;;;;;35.85;11.70;;;13.10;99.90;;;;;;5033176;28;20048;-58
2023/05/23 01:55:02;;;;;;;37.80;12.70;;;13.10;99.90;;;;;;5036813;28;20067;-58
2023/05/23 01:57:29;;;;;;;31.95;12.68;;;13.10;99.90;;;;;;5039343;28;20103;-58
2023/05/23 01:59:55;;;;;;;27.83;11.77;;;13.00;99.90;;;;;;5037231;28;20407;-58
2023/05/23 02:02:21;;;;;;;37.30;11.93;;;13.00;99.90;;;;;;5035629;28;20045;-58
2023/05/23 02:04:48;;;;;;;29.55;11.55;;;12.90;99.90;;;;;;5034676;28;20052;-58
2023/05/23 02:07:14;;;;;;;31.65;10.85;;;12.90;99.90;;;;;;5036190;28;20136;-58
2023/05/23 02:09:40;;;;;;;34.60;10.60;;;12.90;99.90;;;;;;5037981;28;20206;-57
2023/05/23 02:12:06;;;;;;;31.55;10.07;;;12.90;99.90;;;;;;5037450;28;20033;-56
2023/05/23 02:14:32;;;;;;;32.28;10.52;;;12.80;99.90;;;;;;5032596;28;20129;-57
2023/05/23 02:16:59;;;;;;;27.23;10.68;;;12.80;99.90;;;;;;5032934;28;20076;-58
2023/05/23 02:19:25;;;;;;;33.45;10.68;;;12.80;99.90;;;;;;5022323;28;21301;-57
2023/05/23 02:21:51;;;;;;;32.83;10.95;;;12.80;99.90;;;;;;5024695;28;20060;-57
2023/05/23 02:24:17;;;;;;;28.90;10.45;;;12.80;99.90;;;;;;5032734;28;20045;-56
2023/05/23 02:26:42;;;;;;;30.65;10.23;;;12.70;99.90;;;;;;5029738;28;20049;-57
2023/05/23 02:29:08;;;;;;;34.00;10.23;;;12.70;99.90;;;;;;5036766;28;20045;-58
2023/05/23 02:31:35;;;;;;;32.03;10.07;;;12.60;99.90;;;;;;5037042;28;20049;-58
2023/05/23 02:34:01;;;;;;;30.98;11.35;;;12.60;99.90;;;;;;5034516;28;20642;-58
2023/05/23 02:36:27;;;;;;;31.13;10.35;;;12.60;99.90;;;;;;5032002;28;20131;-58
2023/05/23 02:38:52;;;;;;;33.22;10.20;;;12.50;99.90;;;;;;5030836;28;20476;-58
2023/05/23 02:41:18;;;;;;;28.33;8.95;;;12.50;99.90;;;;;;5034615;28;20044;-58
2023/05/23 02:43:46;;;;;;;32.97;9.68;;;12.50;99.90;;;;;;5030759;28;21530;-57
2023/05/23 02:46:12;;;;;;;32.42;9.38;;;12.40;99.90;;;;;;5032171;28;20099;-58
2023/05/23 02:48:38;;;;;;;30.63;9.20;;;12.40;99.90;;;;;;5031915;28;20035;-56
2023/05/23 02:51:03;;;;;;;27.98;9.73;;;12.40;99.90;;;;;;5033501;28;20044;-57
2023/05/23 02:53:29;;;;;;;29.67;9.98;;;12.40;99.90;;;;;;5032821;28;20103;-58
2023/05/23 02:55:55;;;;;;;33.90;9.77;;;12.40;99.90;;;;;;5014956;28;20765;-58
2023/05/23 02:58:20;;;;;;;33.72;10.00;;;12.40;99.90;;;;;;5031740;28;20107;-58
2023/05/23 03:00:46;;;;;;;34.20;10.35;;;12.40;99.90;;;;;;5033133;28;20891;-58
2023/05/23 03:03:12;;;;;;;32.40;10.32;;;12.40;99.90;;;;;;5036478;28;20041;-58
2023/05/23 03:05:38;;;;;;;22.00;9.57;;;12.40;99.90;;;;;;5035052;28;20814;-57
2023/05/23 03:08:04;;;;;;;30.33;10.32;;;12.40;99.90;;;;;;5015500;28;20072;-58
2023/05/23 03:10:29;;;;;;;22.98;9.32;;;12.40;99.90;;;;;;5029486;28;20509;-57
2023/05/23 03:12:55;;;;;;;32.67;9.38;;;12.30;99.90;;;;;;5033394;28;20044;-58
2023/05/23 03:15:21;;;;;;;27.85;9.15;;;12.40;99.90;;;;;;5030969;28;20497;-58
2023/05/23 03:17:46;;;;;;;21.17;8.90;;;12.40;99.90;;;;;;5034094;28;20124;-58
2023/05/23 03:20:13;;;;;;;22.95;8.73;;;12.30;99.90;;;;;;5033295;28;20029;-57
2023/05/23 03:22:42;;;;;;;22.58;8.60;;;12.30;99.90;;;;;;5032044;28;20095;-57
2023/05/23 03:25:08;;;;;;;25.83;8.00;;;12.30;99.90;;;;;;5027937;28;20843;-56
2023/05/23 03:27:34;;;;;;;25.55;8.32;;;12.30;99.90;;;;;;5024080;28;20055;-58
2023/05/23 03:30:00;;;;;;;26.33;7.97;;;12.30;99.90;;;;;;5029558;28;20048;-57
2023/05/23 03:32:25;;;;;;;22.80;7.70;;;12.30;99.90;;;;;;5031722;28;20034;-57
2023/05/23 03:34:51;;;;;;;27.45;7.70;;;12.30;99.90;;;;;;5039400;28;20524;-57
2023/05/23 03:37:17;;;;;;;28.30;7.93;;;12.30;99.90;;;;;;5033956;28;20049;-58
2023/05/23 03:39:43;;;;;;;19.58;7.40;;;12.20;99.90;;;;;;5034934;28;20374;-58
2023/05/23 03:42:08;;;;;;;23.42;7.78;;;12.30;99.90;;;;;;5036702;28;20499;-58
2023/05/23 03:44:34;;;;;;;26.38;7.40;;;12.20;99.90;;;;;;5038775;28;20037;-58
2023/05/23 03:47:00;;;;;;;24.15;7.47;;;12.20;99.90;;;;;;5043715;28;20068;-58
2023/05/23 03:49:26;;;;;;;17.75;6.38;;;12.20;99.90;;;;;;5039805;28;20068;-58
2023/05/23 03:51:51;;;;;;;22.25;6.90;;;12.20;99.90;;;;;;5039423;28;20179;-58
2023/05/23 03:54:17;;;;;;;26.50;6.75;;;12.20;99.90;;;;;;5035536;28;20048;-56
2023/05/23 03:56:43;;;;;;;20.48;6.68;;;12.20;99.90;;;;;;5040250;28;20483;-57
2023/05/23 03:59:09;;;;;;;23.23;7.30;;;12.20;99.90;;;;;;5041532;28;20040;-58
2023/05/23 04:01:34;;;;;;;28.02;8.18;;;12.20;99.90;;;;;;5038352;28;20225;-57
2023/05/23 04:04:00;;;;;;;25.45;7.55;;;12.10;99.90;;;;;;5035851;28;20057;-58
2023/05/23 04:06:28;;;;;;;26.63;7.90;;;12.10;99.90;;;;;;5036771;28;20073;-56
2023/05/23 04:08:54;;;;;;;20.02;6.70;;;12.10;99.90;;;;;;5032874;28;20048;-58
2023/05/23 04:11:21;;;;;;;21.27;7.03;;;12.10;99.90;;;;;;5035217;28;20485;-57
2023/05/23 04:13:47;;;;;;;18.65;5.82;;;12.10;99.90;;;;;;5038123;28;20470;-58
2023/05/23 04:16:12;;;;;;;17.35;5.75;;;12.10;99.90;;;;;;5032561;28;20041;-57
2023/05/23 04:18:38;;;;;;;21.35;6.30;;;12.10;99.90;;;;;;5035002;28;20052;-58
2023/05/23 04:21:04;;;;;;;16.50;5.28;;;12.10;99.90;;;;;;5034393;28;20048;-57
2023/05/23 04:23:30;;;;;;;17.48;4.55;;;12.10;99.90;;;;;;5032649;28;20076;-57
2023/05/23 04:25:56;;;;;;;17.63;5.97;;;12.10;99.90;;;;;;5034685;28;20048;-58
2023/05/23 04:28:22;;;;;;;20.65;5.72;;;12.10;99.90;;;;;;5040122;28;20532;-57
2023/05/23 04:30:48;;;;;;;19.63;5.90;;;12.10;99.90;;;;;;5037694;28;20078;-58
2023/05/23 04:33:16;;;;;;;22.77;4.93;;;12.10;99.90;;;;;;5031070;28;20127;-57
2023/05/23 04:35:42;;;;;;;16.08;5.90;;;12.10;99.90;;;;;;5037133;28;20049;-57
2023/05/23 04:38:09;;;;;;;20.88;5.85;;;12.10;99.90;;;;;;5023711;28;20075;-58
2023/05/23 04:40:34;;;;;;;17.10;5.82;;;12.00;99.90;;;;;;5036801;28;20489;-58
2023/05/23 04:43:00;;;;;;;19.35;6.55;;;12.00;99.90;;;;;;5030472;28;20136;-57
2023/05/23 04:45:27;;;;;;;24.90;6.80;;;12.00;99.90;;;;;;5032763;28;20386;-57
2023/05/23 04:47:56;;;;;;;20.55;6.80;;;12.00;99.90;;;;;;5033528;28;20675;-56
2023/05/23 04:50:21;;;;;;;27.08;8.35;;;12.00;99.90;;;;;;5038892;28;20107;-58
2023/05/23 04:52:47;;;;;;;26.10;9.20;;;12.00;99.90;;;;;;5037695;28;20057;-57
2023/05/23 04:55:13;;;;;;;28.35;9.63;;;12.00;99.90;;;;;;5032222;28;20049;-57
2023/05/23 04:57:39;;;;;;;30.35;9.40;;;11.90;99.90;;;;;;5030274;28;20068;-57
2023/05/23 05:00:09;;;;;;;25.85;9.32;;;11.90;99.90;;;;;;5032204;28;20064;-57
2023/05/23 05:02:36;;;;;;;31.95;10.23;;;11.90;99.90;;;;;;5031754;28;20044;-57
2023/05/23 05:05:03;;;;;;;28.25;9.32;;;11.90;99.90;;;;;;5033033;28;20060;-56
2023/05/23 05:07:29;;;;;;;28.27;9.20;;;11.90;99.90;;;;;;5034727;28;20040;-58
2023/05/23 05:09:56;;;;;;;28.27;9.40;;;11.80;99.90;;;;;;5035042;28;20080;-56
2023/05/23 05:12:21;;;;;;;27.88;9.30;;;11.80;99.90;;;;;;5031270;28;20038;-56
2023/05/23 05:14:47;;;;;;;24.20;8.85;;;11.70;99.90;;;;;;5024269;28;20041;-57
2023/05/23 05:17:13;;;;;;;22.25;8.05;;;11.70;99.90;;;;;;5022772;28;20052;-57
2023/05/23 05:19:39;;;;;;;21.90;7.72;;;11.70;99.90;;;;;;5029073;28;20132;-57
2023/05/23 05:22:04;;;;;;;17.20;7.05;;;11.60;99.90;;;;;;5018520;28;20160;-57
2023/05/23 05:24:31;;;;;;;20.60;7.15;;;11.60;99.90;;;;;;5031585;28;20969;-56
2023/05/23 05:26:57;;;;;;;17.02;7.10;;;11.50;99.90;;;;;;5015244;28;20048;-57
2023/05/23 05:29:23;;;;;;;27.65;7.43;;;11.50;99.90;;;;;;5042445;28;22078;-57
2023/05/23 05:31:48;;;;;;;18.95;6.95;;;11.50;99.90;;;;;;5032250;28;20040;-57
2023/05/23 05:34:14;;;;;;;20.33;7.10;;;11.50;99.90;;;;;;5028723;28;20041;-57
2023/05/23 05:36:45;;;;;;;13.90;6.68;;;11.50;99.90;;;;;;5033508;28;20055;-58
2023/05/23 05:39:12;;;;;;;15.65;6.18;;;11.50;99.90;;;;;;5028833;28;20048;-58
2023/05/23 05:41:39;;;;;;;13.65;5.60;;;11.40;99.90;;;;;;5027206;28;20041;-55
2023/05/23 05:44:05;;;;;;;14.68;5.30;;;11.40;99.90;;;;;;5038447;28;20064;-57
2023/05/23 05:46:31;;;;;;;15.43;5.78;;;11.40;99.90;;;;;;5031647;28;20045;-58
2023/05/23 05:48:56;;;;;;;13.60;5.20;;;11.40;99.90;;;;;;5037738;28;20098;-59
2023/05/23 05:51:22;;;;;;;18.05;5.93;;;11.50;99.90;;;;;;5033779;28;20127;-56
2023/05/23 05:53:48;;;;;;;16.55;6.07;;;11.50;99.90;;;;;;5034766;28;20041;-57
2023/05/23 05:56:14;;;;;;;19.77;6.03;;;11.50;99.90;;;;;;5035312;28;20051;-58
2023/05/23 05:58:40;;;;;;;20.52;6.22;;;11.50;99.90;;;;;;5038057;28;20056;-57
2023/05/23 06:01:06;;;;;;;23.30;6.00;;;11.50;99.90;;;;;;5041023;28;20099;-56
2023/05/23 06:03:32;;;;;;;20.70;5.32;;;11.50;99.90;;;;;;5038652;28;20503;-54
2023/05/23 06:05:58;;;;;;;17.77;4.85;;;11.40;99.90;;;;;;5029998;28;20091;-58
2023/05/23 06:08:25;;;;;;;16.15;4.90;;;11.40;99.90;;;;;;5032108;28;20087;-58
2023/05/23 06:10:50;;;;;;;18.92;4.57;;;11.40;99.90;;;;;;5035626;28;20032;-59
2023/05/23 06:13:16;;;;;;;18.05;4.68;;;11.40;99.90;;;;;;5035326;28;20049;-59
2023/05/23 06:15:42;;;;;;;18.65;4.95;;;11.40;99.90;;;;;;5033502;28;20067;-59
2023/05/23 06:18:08;;;;;;;19.23;4.93;;;11.40;99.90;;;;;;5033018;28;20131;-59
2023/05/23 06:20:34;;;;;;;19.70;5.30;;;11.30;99.90;;;;;;5036255;28;20068;-59
2023/05/23 06:23:00;;;;;;;22.05;5.60;;;11.30;99.90;;;;;;5039956;28;20519;-59
2023/05/23 06:25:26;;;;;;;18.92;5.07;;;11.30;99.90;;;;;;5039165;28;20041;-59
2023/05/23 06:27:52;;;;;;;20.00;4.90;;;11.30;99.90;;;;;;5037848;28;20439;-59
2023/05/23 06:30:18;;;;;;;21.25;4.80;;;11.30;99.90;;;;;;5041315;28;20084;-58
2023/05/23 06:32:43;;;;;;;17.00;4.30;;;11.40;99.90;;;;;;5038188;28;20112;-59
2023/05/23 06:35:09;;;;;;;23.88;5.30;;;11.40;99.90;;;;;;5030734;28;20080;-60
2023/05/23 06:37:35;;;;;;;22.85;5.40;;;11.40;99.90;;;;;;5041212;28;20480;-59
2023/05/23 06:40:00;;;;;;;22.85;5.05;;;11.50;99.90;;;;;;5044361;28;20171;-59
2023/05/23 06:42:26;;;;;;;23.02;4.70;;;11.60;99.90;;;;;;5039626;28;20048;-59
2023/05/23 06:44:52;;;;;;;24.55;5.32;;;11.60;99.90;;;;;;5040380;28;20480;-59
2023/05/23 06:47:18;;;;;;;28.90;5.63;;;11.70;99.90;;;;;;5033997;28;20044;-59
2023/05/23 06:49:44;;;;;;;25.25;5.50;;;11.70;99.90;;;;;;5041037;28;20161;-59
2023/05/23 06:52:10;;;;;;;20.50;4.68;;;11.70;99.90;;;;;;5043973;28;20034;-59
2023/05/23 06:54:36;;;;;;;25.45;5.80;;;11.80;99.90;;;;;;5043963;28;20142;-58
2023/05/23 06:57:01;;;;;;;25.33;5.82;;;11.80;99.90;;;;;;5039458;28;20076;-59
2023/05/23 06:59:27;;;;;;;25.52;5.50;;;11.80;99.90;;;;;;5040120;28;20044;-59
2023/05/23 07:01:53;;;;;;;25.63;5.07;;;11.80;99.90;;;;;;5037961;28;20044;-60
2023/05/23 07:04:18;;;;;;;25.17;5.35;;;11.80;99.90;;;;;;5038779;28;20052;-59
2023/05/23 07:06:44;;;;;;;28.77;5.45;;;11.80;99.90;;;;;;5046900;28;20496;-59
2023/05/23 07:09:11;;;;;;;24.98;5.43;;;11.80;99.90;;;;;;5042906;28;20029;-59
2023/05/23 07:11:39;;;;;;;22.42;5.22;;;11.80;99.90;;;;;;5047606;28;20067;-59
2023/05/23 07:14:06;;;;;;;23.08;4.50;;;11.70;99.90;;;;;;5048594;28;20047;-59
2023/05/23 07:16:32;;;;;;;23.63;4.90;;;11.70;99.90;;;;;;5041401;28;20155;-59
2023/05/23 07:18:58;;;;;;;22.98;4.30;;;11.70;99.90;;;;;;5033133;28;20083;-59
2023/05/23 07:21:23;;;;;;;23.08;4.85;;;11.70;99.90;;;;;;5047781;28;20497;-59
2023/05/23 07:23:49;;;;;;;21.60;4.53;;;11.70;99.90;;;;;;5025584;28;20037;-59
2023/05/23 07:26:15;;;;;;;27.10;5.45;;;11.70;99.90;;;;;;5043911;28;20045;-58
2023/05/23 07:28:40;;;;;;;25.70;4.95;;;11.70;99.90;;;;;;5029683;28;20051;-59
2023/05/23 07:31:08;;;;;;;26.85;5.15;;;11.80;99.90;;;;;;5043390;28;20405;-59
2023/05/23 07:33:33;;;;;;;26.65;4.80;;;11.80;99.90;;;;;;5048061;28;20049;-59
2023/05/23 07:35:59;;;;;;;27.05;5.22;;;11.80;99.90;;;;;;5037015;28;20033;-59
2023/05/23 07:38:28;;;;;;;21.52;4.43;;;11.90;99.90;;;;;;5038853;28;20053;-58
2023/05/23 07:40:54;;;;;;;22.83;4.70;;;11.90;99.90;;;;;;5048647;28;20037;-59
2023/05/23 07:43:20;;;;;;;18.25;4.00;;;12.00;99.90;;;;;;5038256;28;20088;-58
2023/05/23 07:45:45;;;;;;;21.30;4.30;;;12.00;99.90;;;;;;5037233;28;20064;-60
2023/05/23 07:48:11;;;;;;;25.55;4.90;;;12.10;99.90;;;;;;5044078;28;20115;-59
2023/05/23 07:50:39;;;;;;;23.75;4.50;;;12.20;99.90;;;;;;5035858;28;20055;-59
2023/05/23 07:53:05;;;;;;;22.42;4.95;;;12.20;99.90;;;;;;5043309;28;20037;-59
2023/05/23 07:55:31;;;;;;;18.85;4.60;;;12.30;99.90;;;;;;5031148;28;20048;-59
2023/05/23 07:57:56;;;;;;;23.23;5.03;;;12.30;99.90;;;;;;5049994;28;20577;-60
2023/05/23 08:00:22;;;;;;;22.15;5.22;;;12.30;99.90;;;;;;5034316;28;20464;-59
2023/05/23 08:02:48;;;;;;;23.92;4.97;;;12.30;99.90;;;;;;5038780;28;20107;-59
2023/05/23 08:05:14;;;;;;;22.88;4.55;;;12.30;99.90;;;;;;5044070;28;20076;-59
2023/05/23 08:07:40;;;;;;;26.63;4.40;;;12.40;99.90;;;;;;5040842;28;20068;-59
2023/05/23 08:10:06;;;;;;;15.23;4.32;;;12.30;99.90;;;;;;5035569;28;20037;-59
2023/05/23 08:12:32;;;;;;;19.38;4.72;;;12.30;99.90;;;;;;5041339;28;20045;-59
2023/05/23 08:14:58;;;;;;;19.10;4.43;;;12.30;99.90;;;;;;5041843;28;20506;-59
2023/05/23 08:17:24;;;;;;;24.35;4.32;;;12.50;99.90;;;;;;5042483;28;20076;-59
2023/05/23 08:19:49;;;;;;;18.67;4.68;;;12.70;99.90;;;;;;5040457;28;20037;-59
2023/05/23 08:22:15;;;;;;;15.18;3.67;;;12.90;99.90;;;;;;5049213;28;20040;-59
2023/05/23 08:24:41;;;;;;;22.08;4.45;;;13.00;99.90;;;;;;5050602;28;20059;-59
2023/05/23 08:27:07;;;;;;;18.48;4.38;;;13.00;99.90;;;;;;5041446;28;20034;-59
2023/05/23 08:29:34;;;;;;;23.95;4.70;;;12.90;99.90;;;;;;5043121;28;20041;-59
2023/05/23 08:32:00;;;;;;;20.88;4.35;;;12.90;99.90;;;;;;5037598;28;20107;-58
2023/05/23 08:34:25;;;;;;;21.25;4.10;;;12.90;99.90;;;;;;5047181;28;20444;-59
2023/05/23 08:36:51;;;;;;;18.60;4.53;;;12.80;99.90;;;;;;5044407;28;20558;-59
2023/05/23 08:39:17;;;;;;;20.88;4.80;;;12.90;99.90;;;;;;5036868;28;20045;-59
2023/05/23 08:41:43;;;;;;;25.08;5.22;;;13.00;99.90;;;;;;5040185;28;20045;-60
2023/05/23 08:44:09;;;;;;;31.02;4.55;;;13.00;99.90;;;;;;5047487;28;20036;-59
2023/05/23 08:46:43;;;;;;;16.48;4.10;;;13.10;99.90;;;;;;5039029;28;20033;-59
2023/05/23 08:49:09;;;;;;;20.77;4.28;;;13.20;99.90;;;;;;5045724;28;20166;-59
2023/05/23 08:51:37;;;;;;;18.40;4.18;;;13.20;99.90;;;;;;5040630;28;20048;-59
2023/05/23 08:54:05;;;;;;;24.30;4.03;;;13.20;99.90;;;;;;5036995;28;20033;-59
2023/05/23 08:56:31;;;;;;;23.35;5.07;;;13.20;99.90;;;;;;5036788;28;20103;-60
2023/05/23 08:58:57;;;;;;;24.58;4.18;;;13.30;99.90;;;;;;5051212;28;20045;-59
2023/05/23 09:01:25;;;;;;;21.92;4.07;;;13.30;99.90;;;;;;5037298;28;20087;-59
2023/05/23 09:03:51;;;;;;;24.90;4.47;;;13.30;99.90;;;;;;5039013;28;21250;-59
2023/05/23 09:06:22;;;;;;;25.50;4.75;;;13.30;99.90;;;;;;5035909;28;20110;-60
2023/05/23 09:08:48;;;;;;;21.65;4.25;;;13.40;99.90;;;;;;5045609;28;20036;-60
2023/05/23 09:11:14;;;;;;;17.40;4.35;;;13.40;99.90;;;;;;5043005;28;20126;-60
2023/05/23 09:13:40;;;;;;;21.05;4.50;;;13.30;99.90;;;;;;5038904;28;20179;-60
2023/05/23 09:16:10;;;;;;;16.33;3.72;;;13.30;99.90;;;;;;5046632;28;20051;-59
2023/05/23 09:18:37;;;;;;;23.25;4.70;;;13.30;99.90;;;;;;5044092;28;20059;-59
2023/05/23 09:21:03;;;;;;;20.33;4.43;;;13.40;99.90;;;;;;5041362;28;20100;-59
2023/05/23 09:23:34;;;;;;;22.33;4.25;;;13.50;99.90;;;;;;5032608;28;20051;-59
2023/05/23 09:26:04;;;;;;;19.83;4.82;;;13.70;99.90;;;;;;5044187;28;20452;-59
2023/05/23 09:28:31;;;;;;;18.25;3.90;;;13.70;99.90;;;;;;5041427;28;20608;-59
2023/05/23 09:31:07;;;;;;;18.10;3.90;;;13.70;99.90;;;;;;5036930;28;20680;-59
2023/05/23 09:33:44;;;;;;;16.73;4.32;;;13.60;99.90;;;;;;5044241;28;20045;-59
2023/05/23 09:36:10;;;;;;;22.00;4.43;;;13.70;99.90;;;;;;5033990;28;20084;-59
2023/05/23 09:38:45;;;;;;;17.40;4.20;;;13.90;99.90;;;;;;5051913;28;20461;-59
2023/05/23 09:41:11;;;;;;;22.27;4.90;;;14.10;99.90;;;;;;5032391;28;20059;-60
2023/05/23 09:43:50;;;;;;;19.83;4.45;;;14.10;99.90;;;;;;5037178;28;20171;-60
2023/05/23 09:46:17;;;;;;;22.85;4.15;;;14.20;99.90;;;;;;5042003;28;20095;-60
2023/05/23 09:48:51;;;;;;;16.67;3.72;;;14.00;99.90;;;;;;5047068;28;20492;-60
2023/05/23 09:51:21;;;;;;;20.00;3.90;;;13.90;99.90;;;;;;5038741;28;20567;-60
2023/05/23 09:53:47;;;;;;;19.08;4.03;;;14.00;99.90;;;;;;5041591;28;20557;-59
2023/05/23 09:56:17;;;;;;;24.08;4.07;;;14.20;99.90;;;;;;5043462;28;20059;-60
2023/05/23 09:58:47;;;;;;;18.05;3.88;;;14.40;99.90;;;;;;5041646;28;20632;-60
2023/05/23 10:01:14;;;;;;;20.05;4.20;;;14.50;99.90;;;;;;5034063;28;20044;-60
2023/05/23 10:03:50;;;;;;;22.25;3.90;;;14.70;99.90;;;;;;5042272;28;20033;-60
2023/05/23 10:06:19;;;;;;;16.67;3.95;;;14.80;99.90;;;;;;5039910;28;20118;-59
2023/05/23 10:08:57;;;;;;;16.85;3.88;;;14.80;99.90;;;;;;5040848;28;20065;-59
2023/05/23 10:11:35;;;;;;;17.35;3.97;;;14.90;99.90;;;;;;5035687;28;20109;-60
2023/05/23 10:14:09;;;;;;;25.60;4.55;;;14.80;99.90;;;;;;5046018;28;20523;-59
2023/05/23 10:17:02;;;;;;;12.23;3.88;;;14.70;99.90;;;;;;5040672;28;20052;-60
2023/05/23 10:19:43;;;;;;;21.65;4.53;;;14.60;99.90;;;;;;5036558;28;20083;-59
2023/05/23 10:22:11;;;;;;;20.52;3.97;;;14.70;99.90;;;;;;5038596;28;20040;-60
2023/05/23 10:24:37;;;;;;;19.95;3.53;;;14.60;99.90;;;;;;5037316;28;20485;-60
2023/05/23 10:27:03;;;;;;;23.55;4.10;;;14.50;99.90;;;;;;5040399;28;20088;-59
2023/05/23 10:29:30;;;;;;;18.88;4.18;;;14.40;99.90;;;;;;5052701;28;20060;-59
2023/05/23 10:31:57;;;;;;;14.75;4.30;;;14.40;99.90;;;;;;5042153;28;20048;-60
2023/05/23 10:34:31;;;;;;;16.77;3.88;;;14.30;99.90;;;;;;5049048;28;20067;-59
2023/05/23 10:37:01;;;;;;;15.65;4.00;;;14.30;99.90;;;;;;5045909;28;20109;-60
2023/05/23 10:39:33;;;;;;;18.95;3.80;;;14.20;99.90;;;;;;5041985;28;20046;-59
2023/05/23 10:42:06;;;;;;;14.65;3.80;;;14.30;99.90;;;;;;5047167;28;20401;-60
2023/05/23 10:44:32;;;;;;;13.15;3.28;;;14.60;99.90;;;;;;5044047;28;20405;-60
2023/05/23 10:47:02;;;;;;;19.58;4.05;;;14.90;99.90;;;;;;5054264;28;20033;-60
2023/05/23 10:49:51;;;;;;;13.82;3.42;;;15.00;99.70;;;;;;5048017;28;20572;-60
2023/05/23 10:52:17;;;;;;;17.02;3.58;;;15.00;98.90;;;;;;5049630;28;20052;-60
2023/05/23 10:54:45;;;;;;;14.82;3.40;;;15.00;99.10;;;;;;5043436;28;20079;-60
2023/05/23 10:57:15;;;;;;;16.67;3.33;;;15.10;98.90;;;;;;5043105;28;20049;-60
2023/05/23 10:59:41;;;;;;;15.95;3.50;;;15.10;98.50;;;;;;5049768;28;20110;-60
2023/05/23 11:02:15;;;;;;;15.23;3.42;;;15.20;98.60;;;;;;5038290;28;20065;-60
2023/05/23 11:04:41;;;;;;;22.83;4.43;;;15.20;98.20;;;;;;5040519;28;20049;-59
2023/05/23 11:07:30;;;;;;;19.95;4.03;;;15.10;98.50;;;;;;5038220;28;20044;-60
2023/05/23 11:10:15;;;;;;;21.58;3.92;;;15.00;98.80;;;;;;5045372;28;20033;-59
2023/05/23 11:12:42;;;;;;;15.65;4.03;;;15.00;99.50;;;;;;5045139;28;20099;-59
2023/05/23 11:15:40;;;;;;;18.20;4.15;;;15.10;99.70;;;;;;5042302;28;20037;-60
2023/05/23 11:18:05;;;;;;;19.40;4.40;;;15.10;99.60;;;;;;5042029;28;20098;-60
2023/05/23 11:20:32;;;;;;;22.30;4.03;;;15.10;99.40;;;;;;5036451;28;20041;-60
2023/05/23 11:23:01;;;;;;;20.98;3.97;;;15.20;99.40;;;;;;5037018;28;20402;-59
2023/05/23 11:25:48;;;;;;;18.20;3.85;;;15.30;99.50;;;;;;5041940;28;20397;-60
2023/05/23 11:28:14;;;;;;;18.33;4.30;;;15.30;99.20;;;;;;5041438;28;20040;-59
2023/05/23 11:30:40;;;;;;;19.10;4.15;;;15.10;99.20;;;;;;5041463;28;20127;-59
2023/05/23 11:33:10;;;;;;;19.45;4.28;;;15.10;99.20;;;;;;5048890;28;20139;-59
2023/05/23 11:35:36;;;;;;;13.43;3.60;;;15.10;99.60;;;;;;5035306;28;20041;-60
2023/05/23 11:38:04;;;;;;;15.25;3.53;;;15.20;99.50;;;;;;5040969;28;20455;-59
2023/05/23 11:40:34;;;;;;;10.88;3.30;;;15.40;99.30;;;;;;5041841;28;20084;-60
2023/05/23 11:43:01;;;;;;;14.15;3.50;;;15.30;98.20;;;;;;5036345;28;20072;-59
2023/05/23 11:45:28;;;;;;;21.20;4.07;;;15.20;98.00;;;;;;5037883;28;20132;-60
2023/05/23 11:47:54;;;;;;;17.80;3.60;;;15.20;99.00;;;;;;5042666;28;20392;-60
2023/05/23 11:50:20;;;;;;;19.83;3.60;;;15.50;99.40;;;;;;5040943;28;20048;-59
2023/05/23 11:52:50;;;;;;;20.17;3.35;;;15.70;98.60;;;;;;5044699;28;20094;-59
2023/05/23 11:55:17;;;;;;;10.68;3.10;;;15.80;97.80;;;;;;5044155;28;20130;-60
2023/05/23 11:57:43;;;;;;;19.52;3.25;;;15.90;96.90;;;;;;5039789;28;20456;-59
2023/05/23 12:00:10;;;;;;;17.63;3.80;;;16.00;96.10;;;;;;5034464;28;20053;-60
2023/05/23 12:02:40;;;;;;;18.52;3.83;;;16.10;96.70;;;;;;5034584;28;20450;-60
2023/05/23 12:05:10;;;;;;;18.98;3.53;;;16.10;96.70;;;;;;5038103;28;20754;-60
2023/05/23 12:07:44;;;;;;;12.02;3.40;;;16.10;95.80;;;;;;5040568;28;20033;-59
2023/05/23 12:10:10;;;;;;;13.77;3.20;;;15.90;95.40;;;;;;5041074;28;20108;-60
2023/05/23 12:12:36;;;;;;;15.05;3.75;;;15.80;95.30;;;;;;5040380;28;20055;-60
2023/05/23 12:15:03;;;;;;;19.63;4.07;;;15.70;95.80;;;;;;5030859;28;20033;-60
2023/05/23 12:17:29;;;;;;;22.35;4.07;;;15.60;96.30;;;;;;5039165;28;20472;-59
2023/05/23 12:19:55;;;;;;;21.58;4.13;;;15.50;96.40;;;;;;5040075;28;20489;-60
2023/05/23 12:22:24;;;;;;;18.90;4.00;;;15.40;97.10;;;;;;5039815;28;20042;-60
2023/05/23 12:24:54;;;;;;;20.35;3.85;;;15.40;98.00;;;;;;5036187;28;20042;-59
2023/05/23 12:27:30;;;;;;;17.35;3.70;;;15.60;98.80;;;;;;5040602;28;20476;-60
2023/05/23 12:30:06;;;;;;;19.13;4.00;;;15.80;98.70;;;;;;5033582;28;20090;-60
2023/05/23 12:32:32;;;;;;;19.05;3.30;;;15.80;98.20;;;;;;5037657;28;20033;-60
2023/05/23 12:34:58;;;;;;;14.50;3.10;;;15.80;97.70;;;;;;5036243;28;20976;-60
2023/05/23 12:37:24;;;;;;;12.60;2.70;;;15.70;96.10;;;;;;5021480;28;20065;-60